Hovedside
METAR-TAF:

METAR-TAF

Lufthavner :

Mariehamn lufthavn

Mariehamn, Finland

breddegrad: 60-07N, lengdegrad: 019-54E, høyde over havet: 6 m

Gjeldene værobservasjon

Denne rapporten ble laget for 26 minutter siden, klokken 18:20 UTC
Vind 1 kt fra skiftende retning
Temperatur -3°C
Luftfuktighet 93%
Trykk 1038 hPa
Sikt 10 km eller mer
Brutte skyer i en høyde av 2500 ft

METAR: EFMA 191820Z AUTO VRB01KT 9999 BKN025 M03/M04 Q1038

Tid: 20:46 (18:46 UTC)

Varsel

Denne rapporten ble laget for 1 time og 21 minutter siden, klokken 17:25 UTC
Varsel gyldig fra 19. klokken 18 UTC til 20. klokken 03 UTC
Vind 4 kt fra Nord
Sikt 10 km eller mer
Få skyer i en høyde av 2500 ft

TAF: EFMA 191725Z 1918/2003 01004KT 9999 FEW025

Værobservasjoner og værvarsel for over 4000 flyplasser (METAR- og TAF-rapporter).

Tilgjengelige stasjoner er representert av de røde og gule prikkene på kartet.

Hold musepekeren over prikken for å se navnet på stasjonen.

Klikk så for å se værobservasjoner og -varsler.

For å forandre kartet kan du klikke på den grønne knappen med svart kryss for å zoome inn, på den grønne knappen med strek for å zoome ut, eller på de grønne pilene for å se tilstøtende kart.


METAR-TAF: